sensor_id;sensor_type;location;lat;lon;timestamp;pressure;altitude;pressure_sealevel;temperature;humidity
59600;BME280;61855;55.030;73.326;2022-10-26T00:03:46;62956.78;;;-141.76;100.00
59600;BME280;61855;55.030;73.326;2022-10-26T00:06:19;62956.78;;;105.75;100.00
59600;BME280;61855;55.030;73.326;2022-10-26T00:08:50;62956.78;;;188.41;100.00
59600;BME280;61855;55.030;73.326;2022-10-26T00:11:18;62956.78;;;33.49;100.00
59600;BME280;61855;55.030;73.326;2022-10-26T00:13:49;62956.78;;;-141.76;100.00
59600;BME280;61855;55.030;73.326;2022-10-26T00:16:24;62956.78;;;-141.76;100.00
59600;BME280;61855;55.030;73.326;2022-10-26T00:18:51;62956.78;;;-141.76;100.00
59600;BME280;61855;55.030;73.326;2022-10-26T00:21:18;62956.78;;;-141.76;100.00
59600;BME280;61855;55.030;73.326;2022-10-26T00:23:44;62956.78;;;-141.76;100.00
59600;BME280;61855;55.030;73.326;2022-10-26T00:31:17;62956.78;;;-141.76;100.00
59600;BME280;61855;55.030;73.326;2022-10-26T00:33:43;62956.78;;;-141.76;100.00
59600;BME280;61855;55.030;73.326;2022-10-26T00:36:10;62956.78;;;-141.76;100.00
59600;BME280;61855;55.030;73.326;2022-10-26T00:38:38;62956.78;;;-141.76;100.00
59600;BME280;61855;55.030;73.326;2022-10-26T00:41:32;62956.78;;;-141.76;100.00
59600;BME280;61855;55.030;73.326;2022-10-26T00:44:37;62956.78;;;-141.76;100.00
59600;BME280;61855;55.030;73.326;2022-10-26T00:46:46;62956.78;;;-141.76;100.00
59600;BME280;61855;55.030;73.326;2022-10-26T00:49:15;62956.78;;;-141.76;100.00
59600;BME280;61855;55.030;73.326;2022-10-26T00:51:50;62956.78;;;-141.76;100.00
59600;BME280;61855;55.030;73.326;2022-10-26T00:54:22;62956.78;;;-141.76;100.00
59600;BME280;61855;55.030;73.326;2022-10-26T00:56:50;62956.78;;;-141.76;100.00
59600;BME280;61855;55.030;73.326;2022-10-26T01:01:48;62956.78;;;-141.76;100.00
59600;BME280;61855;55.030;73.326;2022-10-26T01:04:15;62992.28;;;-141.76;100.00
59600;BME280;61855;55.030;73.326;2022-10-26T01:06:48;62956.78;;;-141.76;100.00
59600;BME280;61855;55.030;73.326;2022-10-26T01:09:16;99297.97;;;-0.41;nan
59600;BME280;61855;55.030;73.326;2022-10-26T01:11:45;99334.22;;;-0.42;nan
59600;BME280;61855;55.030;73.326;2022-10-26T01:14:13;99286.25;;;-0.39;nan
59600;BME280;61855;55.030;73.326;2022-10-26T01:16:56;62956.78;;;-141.76;100.00
59600;BME280;61855;55.030;73.326;2022-10-26T01:22:41;99296.56;;;-0.45;nan
59600;BME280;61855;55.030;73.326;2022-10-26T01:25:37;62956.78;;;-141.76;100.00
59600;BME280;61855;55.030;73.326;2022-10-26T01:31:10;99283.09;;;-0.53;nan
59600;BME280;61855;55.030;73.326;2022-10-26T01:34:00;62956.78;;;-141.76;100.00
59600;BME280;61855;55.030;73.326;2022-10-26T01:36:41;62956.78;;;-141.76;100.00
59600;BME280;61855;55.030;73.326;2022-10-26T01:39:21;99301.56;;;-0.42;nan
59600;BME280;61855;55.030;73.326;2022-10-26T01:41:57;101685.38;;;-141.76;100.00
59600;BME280;61855;55.030;73.326;2022-10-26T01:44:37;62956.78;;;188.41;100.00
59600;BME280;61855;55.030;73.326;2022-10-26T01:47:08;62956.78;;;-141.76;100.00
59600;BME280;61855;55.030;73.326;2022-10-26T01:49:40;62956.78;;;43.81;100.00
59600;BME280;61855;55.030;73.326;2022-10-26T01:52:09;62956.78;;;-141.76;100.00
59600;BME280;61855;55.030;73.326;2022-10-26T01:54:36;99246.47;;;-0.18;nan
59600;BME280;61855;55.030;73.326;2022-10-26T02:02:22;99330.56;;;0.00;nan
59600;BME280;61855;55.030;73.326;2022-10-26T02:08:18;99303.53;;;0.07;nan
59600;BME280;61855;55.030;73.326;2022-10-26T02:16:28;99380.94;;;0.21;nan
59600;BME280;61855;55.030;73.326;2022-10-26T02:21:37;99366.44;;;0.25;nan
59600;BME280;61855;55.030;73.326;2022-10-26T02:24:06;99357.50;;;0.26;nan
59600;BME280;61855;55.030;73.326;2022-10-26T02:26:35;99363.63;;;0.27;nan
59600;BME280;61855;55.030;73.326;2022-10-26T02:29:07;99368.69;;;0.30;nan
59600;BME280;61855;55.030;73.326;2022-10-26T02:31:35;99318.97;;;0.32;nan
59600;BME280;61855;55.030;73.326;2022-10-26T02:34:06;99332.69;;;0.37;nan
59600;BME280;61855;55.030;73.326;2022-10-26T02:36:36;99422.84;;;0.27;nan
59600;BME280;61855;55.030;73.326;2022-10-26T02:39:05;99307.53;;;0.31;nan
59600;BME280;61855;55.030;73.326;2022-10-26T02:42:00;99305.59;;;0.43;nan
59600;BME280;61855;55.030;73.326;2022-10-26T02:44:40;99353.97;;;0.46;nan
59600;BME280;61855;55.030;73.326;2022-10-26T02:47:08;83708.34;;;-141.76;100.00
59600;BME280;61855;55.030;73.326;2022-10-26T02:49:34;99372.97;;;0.51;nan
59600;BME280;61855;55.030;73.326;2022-10-26T02:52:16;99381.94;;;0.60;nan
59600;BME280;61855;55.030;73.326;2022-10-26T02:57:28;83686.41;;;188.41;0.00
59600;BME280;61855;55.030;73.326;2022-10-26T02:59:57;99423.34;;;0.72;nan
59600;BME280;61855;55.030;73.326;2022-10-26T03:02:23;99414.97;;;0.77;nan
59600;BME280;61855;55.030;73.326;2022-10-26T03:04:50;99390.41;;;0.84;nan
59600;BME280;61855;55.030;73.326;2022-10-26T03:07:23;99393.25;;;0.92;nan
59600;BME280;61855;55.030;73.326;2022-10-26T03:09:57;99409.47;;;0.99;nan
59600;BME280;61855;55.030;73.326;2022-10-26T03:12:27;99391.31;;;1.04;nan
59600;BME280;61855;55.030;73.326;2022-10-26T03:14:53;99435.78;;;1.11;nan
59600;BME280;61855;55.030;73.326;2022-10-26T03:17:19;99442.25;;;1.18;nan
59600;BME280;61855;55.030;73.326;2022-10-26T03:19:45;99413.72;;;1.30;nan
59600;BME280;61855;55.030;73.326;2022-10-26T03:22:11;99455.69;;;1.36;nan
59600;BME280;61855;55.030;73.326;2022-10-26T03:24:37;99406.47;;;1.42;nan
59600;BME280;61855;55.030;73.326;2022-10-26T03:27:03;99439.22;;;1.52;nan
59600;BME280;61855;55.030;73.326;2022-10-26T03:29:29;99657.78;;;1.55;nan
59600;BME280;61855;55.030;73.326;2022-10-26T03:32:01;99427.16;;;1.48;nan
59600;BME280;61855;55.030;73.326;2022-10-26T03:34:27;99456.84;;;1.72;nan
59600;BME280;61855;55.030;73.326;2022-10-26T03:37:03;99470.03;;;1.73;nan
59600;BME280;61855;55.030;73.326;2022-10-26T03:39:29;99460.78;;;1.77;nan
59600;BME280;61855;55.030;73.326;2022-10-26T03:41:56;99451.28;;;1.84;nan
59600;BME280;61855;55.030;73.326;2022-10-26T03:44:34;99438.38;;;1.89;nan
59600;BME280;61855;55.030;73.326;2022-10-26T03:47:00;99463.56;;;1.95;nan
59600;BME280;61855;55.030;73.326;2022-10-26T03:49:36;99463.03;;;2.01;nan
59600;BME280;61855;55.030;73.326;2022-10-26T03:52:02;99415.97;;;2.11;nan
59600;BME280;61855;55.030;73.326;2022-10-26T03:54:28;99441.16;;;2.17;nan
59600;BME280;61855;55.030;73.326;2022-10-26T03:56:54;99443.09;;;2.24;nan
59600;BME280;61855;55.030;73.326;2022-10-26T03:59:20;99364.34;;;2.31;nan
59600;BME280;61855;55.030;73.326;2022-10-26T04:01:55;99439.97;;;2.38;nan
59600;BME280;61855;55.030;73.326;2022-10-26T04:04:21;99380.00;;;2.44;nan
59600;BME280;61855;55.030;73.326;2022-10-26T04:06:47;99318.31;;;2.48;nan
59600;BME280;61855;55.030;73.326;2022-10-26T04:09:13;99417.50;;;2.60;nan
59600;BME280;61855;55.030;73.326;2022-10-26T04:11:39;99487.34;;;2.54;nan
59600;BME280;61855;55.030;73.326;2022-10-26T04:14:05;99349.56;;;2.73;nan
59600;BME280;61855;55.030;73.326;2022-10-26T04:16:31;99378.47;;;2.78;nan
59600;BME280;61855;55.030;73.326;2022-10-26T04:18:57;99292.59;;;2.84;nan
59600;BME280;61855;55.030;73.326;2022-10-26T04:21:28;99429.13;;;2.96;nan
59600;BME280;61855;55.030;73.326;2022-10-26T04:24:05;99398.22;;;3.03;nan
59600;BME280;61855;55.030;73.326;2022-10-26T04:26:32;99372.38;;;3.13;nan
59600;BME280;61855;55.030;73.326;2022-10-26T04:28:58;99371.81;;;3.09;nan
59600;BME280;61855;55.030;73.326;2022-10-26T04:31:24;99365.53;;;3.28;nan
59600;BME280;61855;55.030;73.326;2022-10-26T04:33:50;99320.56;;;3.33;nan
59600;BME280;61855;55.030;73.326;2022-10-26T04:36:16;99384.25;;;3.36;nan
59600;BME280;61855;55.030;73.326;2022-10-26T04:38:53;99352.81;;;3.39;nan
59600;BME280;61855;55.030;73.326;2022-10-26T04:41:19;99338.69;;;3.47;nan
59600;BME280;61855;55.030;73.326;2022-10-26T04:43:45;62956.78;;;-141.76;100.00
59600;BME280;61855;55.030;73.326;2022-10-26T04:48:43;62956.78;;;-141.76;100.00
59600;BME280;61855;55.030;73.326;2022-10-26T04:53:35;62956.78;;;-141.76;100.00
59600;BME280;61855;55.030;73.326;2022-10-26T04:56:01;62956.78;;;-141.76;100.00
59600;BME280;61855;55.030;73.326;2022-10-26T04:58:29;62956.78;;;-141.76;100.00
59600;BME280;61855;55.030;73.326;2022-10-26T05:00:56;62956.78;;;-141.76;100.00
59600;BME280;61855;55.030;73.326;2022-10-26T05:03:22;62956.78;;;-141.76;100.00
59600;BME280;61855;55.030;73.326;2022-10-26T05:05:48;62956.78;;;-141.76;100.00
59600;BME280;61855;55.030;73.326;2022-10-26T05:08:25;62956.78;;;-141.76;100.00
59600;BME280;61855;55.030;73.326;2022-10-26T05:10:51;62956.78;;;-141.76;100.00
59600;BME280;61855;55.030;73.326;2022-10-26T05:13:24;62956.78;;;-141.76;100.00
59600;BME280;61855;55.030;73.326;2022-10-26T05:15:53;62956.78;;;-141.76;100.00
59600;BME280;61855;55.030;73.326;2022-10-26T05:18:19;62956.78;;;-141.76;100.00
59600;BME280;61855;55.030;73.326;2022-10-26T05:20:51;62956.78;;;-141.76;100.00
59600;BME280;61855;55.030;73.326;2022-10-26T05:23:17;62956.78;;;-141.76;100.00
59600;BME280;61855;55.030;73.326;2022-10-26T05:25:44;99332.19;;;4.10;nan
59600;BME280;61855;55.030;73.326;2022-10-26T05:30:42;62956.78;;;-141.76;100.00
59600;BME280;61855;55.030;73.326;2022-10-26T05:33:12;62956.78;;;-141.76;100.00
59600;BME280;61855;55.030;73.326;2022-10-26T05:35:39;62956.78;;;-141.76;100.00
59600;BME280;61855;55.030;73.326;2022-10-26T05:38:12;62956.78;;;-141.76;100.00
59600;BME280;61855;55.030;73.326;2022-10-26T05:40:49;62956.78;;;-141.76;100.00
59600;BME280;61855;55.030;73.326;2022-10-26T05:43:15;62956.78;;;-141.76;100.00
59600;BME280;61855;55.030;73.326;2022-10-26T05:45:42;62956.78;;;-141.76;100.00
59600;BME280;61855;55.030;73.326;2022-10-26T05:48:08;62956.78;;;-141.76;100.00
59600;BME280;61855;55.030;73.326;2022-10-26T05:50:34;62956.78;;;-141.76;100.00
59600;BME280;61855;55.030;73.326;2022-10-26T05:53:00;62956.78;;;-141.76;100.00
59600;BME280;61855;55.030;73.326;2022-10-26T05:55:27;62956.78;;;-141.76;100.00
59600;BME280;61855;55.030;73.326;2022-10-26T06:00:24;62956.78;;;-141.76;100.00
59600;BME280;61855;55.030;73.326;2022-10-26T06:03:07;62956.78;;;-141.76;100.00
59600;BME280;61855;55.030;73.326;2022-10-26T06:08:21;62956.78;;;-141.76;100.00
59600;BME280;61855;55.030;73.326;2022-10-26T06:13:20;62956.78;;;-141.76;100.00
59600;BME280;61855;55.030;73.326;2022-10-26T06:16:06;62956.78;;;-141.76;100.00
59600;BME280;61855;55.030;73.326;2022-10-26T06:21:48;62956.78;;;-141.76;100.00
59600;BME280;61855;55.030;73.326;2022-10-26T06:27:12;99470.03;;;4.80;nan
59600;BME280;61855;55.030;73.326;2022-10-26T06:30:09;99470.44;;;4.94;nan
59600;BME280;61855;55.030;73.326;2022-10-26T06:32:42;99478.94;;;4.89;nan
59600;BME280;61855;55.030;73.326;2022-10-26T06:38:19;99453.00;;;5.15;nan
59600;BME280;61855;55.030;73.326;2022-10-26T06:40:48;99441.97;;;5.18;nan
59600;BME280;61855;55.030;73.326;2022-10-26T06:43:22;99464.72;;;5.22;nan
59600;BME280;61855;55.030;73.326;2022-10-26T06:46:21;62956.78;;;-141.76;100.00
59600;BME280;61855;55.030;73.326;2022-10-26T06:48:55;99347.75;;;5.32;nan
59600;BME280;61855;55.030;73.326;2022-10-26T06:51:23;62956.78;;;-141.76;100.00
59600;BME280;61855;55.030;73.326;2022-10-26T06:53:58;62956.78;;;-141.76;100.00
59600;BME280;61855;55.030;73.326;2022-10-26T06:56:25;62956.78;;;-141.76;100.00
59600;BME280;61855;55.030;73.326;2022-10-26T06:58:52;62956.78;;;-141.76;100.00
59600;BME280;61855;55.030;73.326;2022-10-26T07:01:25;62956.78;;;-141.76;100.00
59600;BME280;61855;55.030;73.326;2022-10-26T07:03:51;62956.78;;;-141.76;100.00
59600;BME280;61855;55.030;73.326;2022-10-26T07:06:17;62956.78;;;-141.76;100.00
59600;BME280;61855;55.030;73.326;2022-10-26T07:11:09;99419.50;;;5.53;nan
59600;BME280;61855;55.030;73.326;2022-10-26T07:13:36;62956.78;;;-141.76;100.00
59600;BME280;61855;55.030;73.326;2022-10-26T07:16:02;99456.13;;;5.53;nan
59600;BME280;61855;55.030;73.326;2022-10-26T07:18:28;62956.78;;;-141.76;100.00
59600;BME280;61855;55.030;73.326;2022-10-26T07:20:54;99464.50;;;5.58;nan
59600;BME280;61855;55.030;73.326;2022-10-26T07:23:20;99460.19;;;5.65;nan
59600;BME280;61855;55.030;73.326;2022-10-26T07:25:47;99378.88;;;5.74;nan
59600;BME280;61855;55.030;73.326;2022-10-26T07:28:13;99424.41;;;5.82;nan
59600;BME280;61855;55.030;73.326;2022-10-26T07:30:40;99425.78;;;5.86;nan
59600;BME280;61855;55.030;73.326;2022-10-26T07:33:12;62956.78;;;-141.76;100.00
59600;BME280;61855;55.030;73.326;2022-10-26T07:35:40;99349.66;;;5.88;nan
59600;BME280;61855;55.030;73.326;2022-10-26T07:38:07;99585.44;;;5.95;nan
59600;BME280;61855;55.030;73.326;2022-10-26T07:40:35;99417.41;;;5.97;nan
59600;BME280;61855;55.030;73.326;2022-10-26T07:43:01;62956.78;;;-141.76;100.00
59600;BME280;61855;55.030;73.326;2022-10-26T07:45:28;99417.09;;;6.00;nan
59600;BME280;61855;55.030;73.326;2022-10-26T07:47:55;99449.91;;;6.10;nan
59600;BME280;61855;55.030;73.326;2022-10-26T07:50:21;99321.34;;;6.10;nan
59600;BME280;61855;55.030;73.326;2022-10-26T07:52:47;99306.78;;;5.72;nan
59600;BME280;61855;55.030;73.326;2022-10-26T07:55:13;99353.13;;;6.29;nan
59600;BME280;61855;55.030;73.326;2022-10-26T07:57:39;99335.88;;;6.32;nan
59600;BME280;61855;55.030;73.326;2022-10-26T08:00:07;99400.66;;;6.35;nan
59600;BME280;61855;55.030;73.326;2022-10-26T08:02:34;99424.63;;;6.37;nan
59600;BME280;61855;55.030;73.326;2022-10-26T08:05:00;99462.28;;;6.43;nan
59600;BME280;61855;55.030;73.326;2022-10-26T08:07:27;99460.97;;;6.39;nan
59600;BME280;61855;55.030;73.326;2022-10-26T08:09:53;99469.50;;;6.51;nan
59600;BME280;61855;55.030;73.326;2022-10-26T08:12:19;99452.22;;;6.53;nan
59600;BME280;61855;55.030;73.326;2022-10-26T08:14:46;99437.31;;;6.51;nan
59600;BME280;61855;55.030;73.326;2022-10-26T08:17:12;99466.16;;;6.49;nan
59600;BME280;61855;55.030;73.326;2022-10-26T08:19:37;99483.03;;;6.49;nan
59600;BME280;61855;55.030;73.326;2022-10-26T08:22:03;99467.81;;;6.50;nan
59600;BME280;61855;55.030;73.326;2022-10-26T08:24:31;99472.00;;;6.52;nan
59600;BME280;61855;55.030;73.326;2022-10-26T08:26:57;99473.50;;;6.55;nan
59600;BME280;61855;55.030;73.326;2022-10-26T08:29:23;99459.59;;;6.59;nan
59600;BME280;61855;55.030;73.326;2022-10-26T08:31:49;99552.75;;;6.65;nan
59600;BME280;61855;55.030;73.326;2022-10-26T08:34:15;99464.56;;;6.70;nan
59600;BME280;61855;55.030;73.326;2022-10-26T08:36:42;99443.66;;;6.74;nan
59600;BME280;61855;55.030;73.326;2022-10-26T08:39:08;99451.88;;;6.72;nan
59600;BME280;61855;55.030;73.326;2022-10-26T08:41:43;99446.16;;;6.75;nan
59600;BME280;61855;55.030;73.326;2022-10-26T08:44:26;99462.22;;;6.75;nan
59600;BME280;61855;55.030;73.326;2022-10-26T08:47:06;99443.66;;;6.74;nan
59600;BME280;61855;55.030;73.326;2022-10-26T08:52:36;99440.63;;;6.69;nan
59600;BME280;61855;55.030;73.326;2022-10-26T08:55:03;99400.94;;;6.64;nan
59600;BME280;61855;55.030;73.326;2022-10-26T08:57:41;99580.38;;;6.50;nan
59600;BME280;61855;55.030;73.326;2022-10-26T09:00:14;99586.91;;;6.47;nan
59600;BME280;61855;55.030;73.326;2022-10-26T09:02:42;99593.44;;;6.45;nan
59600;BME280;61855;55.030;73.326;2022-10-26T09:05:14;99593.09;;;6.48;nan
59600;BME280;61855;55.030;73.326;2022-10-26T09:08:13;99594.09;;;6.47;nan
59600;BME280;61855;55.030;73.326;2022-10-26T09:10:50;99596.59;;;6.40;nan
59600;BME280;61855;55.030;73.326;2022-10-26T09:13:36;99593.06;;;6.40;nan
59600;BME280;61855;55.030;73.326;2022-10-26T09:16:31;99600.63;;;6.36;nan
59600;BME280;61855;55.030;73.326;2022-10-26T09:24:32;99599.22;;;6.16;nan
59600;BME280;61855;55.030;73.326;2022-10-26T09:27:11;99603.25;;;6.12;nan
59600;BME280;61855;55.030;73.326;2022-10-26T09:29:41;99596.03;;;6.04;nan
59600;BME280;61855;55.030;73.326;2022-10-26T09:32:28;99596.69;;;5.98;nan
59600;BME280;61855;55.030;73.326;2022-10-26T09:35:05;99602.50;;;5.86;nan
59600;BME280;61855;55.030;73.326;2022-10-26T09:45:46;99613.06;;;5.62;nan
59600;BME280;61855;55.030;73.326;2022-10-26T09:48:21;99614.38;;;5.58;nan
59600;BME280;61855;55.030;73.326;2022-10-26T09:50:57;99619.53;;;5.51;nan
59600;BME280;61855;55.030;73.326;2022-10-26T09:53:25;99612.81;;;5.47;nan
59600;BME280;61855;55.030;73.326;2022-10-26T09:56:07;99615.97;;;5.42;nan
59600;BME280;61855;55.030;73.326;2022-10-26T09:58:47;99619.66;;;5.41;nan
59600;BME280;61855;55.030;73.326;2022-10-26T10:04:23;99620.22;;;5.27;nan
59600;BME280;61855;55.030;73.326;2022-10-26T10:06:52;99617.19;;;5.22;nan
59600;BME280;61855;55.030;73.326;2022-10-26T10:09:37;99632.19;;;5.15;nan
59600;BME280;61855;55.030;73.326;2022-10-26T10:12:03;99636.84;;;5.13;nan
59600;BME280;61855;55.030;73.326;2022-10-26T10:16:58;99639.97;;;5.09;nan
59600;BME280;61855;55.030;73.326;2022-10-26T10:24:35;99641.25;;;4.97;nan
59600;BME280;61855;55.030;73.326;2022-10-26T10:35:22;99639.63;;;4.86;nan
59600;BME280;61855;55.030;73.326;2022-10-26T10:37:49;99636.88;;;4.78;nan
59600;BME280;61855;55.030;73.326;2022-10-26T10:40:25;99646.75;;;4.77;nan
59600;BME280;61855;55.030;73.326;2022-10-26T10:42:54;99624.31;;;4.53;nan
59600;BME280;61855;55.030;73.326;2022-10-26T10:45:37;99649.13;;;4.63;nan
59600;BME280;61855;55.030;73.326;2022-10-26T10:50:38;99655.00;;;4.66;nan
59600;BME280;61855;55.030;73.326;2022-10-26T10:58:54;99665.00;;;4.47;nan
59600;BME280;61855;55.030;73.326;2022-10-26T11:01:30;99648.13;;;4.46;nan
59600;BME280;61855;55.030;73.326;2022-10-26T11:06:42;99576.53;;;4.32;nan
59600;BME280;61855;55.030;73.326;2022-10-26T11:09:13;99610.31;;;4.24;nan
59600;BME280;61855;55.030;73.326;2022-10-26T11:11:56;99621.31;;;4.21;nan
59600;BME280;61855;55.030;73.326;2022-10-26T11:14:27;99599.41;;;4.17;nan
59600;BME280;61855;55.030;73.326;2022-10-26T11:17:31;99617.25;;;3.99;nan
59600;BME280;61855;55.030;73.326;2022-10-26T11:20:11;99581.84;;;3.97;nan
59600;BME280;61855;55.030;73.326;2022-10-26T11:25:55;99617.25;;;3.99;nan
59600;BME280;61855;55.030;73.326;2022-10-26T11:28:47;99595.03;;;3.98;nan
59600;BME280;61855;55.030;73.326;2022-10-26T11:31:29;99602.38;;;3.96;nan
59600;BME280;61855;55.030;73.326;2022-10-26T11:36:33;99595.63;;;3.92;nan
59600;BME280;61855;55.030;73.326;2022-10-26T11:45:30;99602.47;;;3.77;nan
59600;BME280;61855;55.030;73.326;2022-10-26T11:48:22;99585.38;;;3.70;nan
59600;BME280;61855;55.030;73.326;2022-10-26T11:50:39;99632.00;;;3.66;nan
59600;BME280;61855;55.030;73.326;2022-10-26T11:53:17;62956.78;;;-141.76;100.00
59600;BME280;61855;55.030;73.326;2022-10-26T11:55:53;99580.97;;;3.52;nan
59600;BME280;61855;55.030;73.326;2022-10-26T11:58:29;99503.88;;;3.31;nan
59600;BME280;61855;55.030;73.326;2022-10-26T12:01:13;99556.06;;;3.33;nan
59600;BME280;61855;55.030;73.326;2022-10-26T12:03:47;99582.47;;;3.27;nan
59600;BME280;61855;55.030;73.326;2022-10-26T12:06:20;99593.75;;;3.11;nan
59600;BME280;61855;55.030;73.326;2022-10-26T12:09:11;62956.78;;;-141.76;100.00
59600;BME280;61855;55.030;73.326;2022-10-26T12:14:32;99618.91;;;2.90;nan
59600;BME280;61855;55.030;73.326;2022-10-26T12:22:29;99600.84;;;2.64;nan
59600;BME280;61855;55.030;73.326;2022-10-26T12:35:42;99665.59;;;2.27;nan
59600;BME280;61855;55.030;73.326;2022-10-26T12:40:47;99622.44;;;2.23;nan
59600;BME280;61855;55.030;73.326;2022-10-26T12:48:46;99643.13;;;2.10;nan
59600;BME280;61855;55.030;73.326;2022-10-26T12:56:44;99739.97;;;1.88;nan
59600;BME280;61855;55.030;73.326;2022-10-26T13:01:58;99753.97;;;1.90;nan
59600;BME280;61855;55.030;73.326;2022-10-26T13:07:23;99748.94;;;1.87;nan
59600;BME280;61855;55.030;73.326;2022-10-26T13:09:56;99756.66;;;1.90;nan
59600;BME280;61855;55.030;73.326;2022-10-26T13:12:24;99597.09;;;1.60;nan
59600;BME280;61855;55.030;73.326;2022-10-26T13:15:05;99750.22;;;1.93;nan
59600;BME280;61855;55.030;73.326;2022-10-26T13:17:52;99757.38;;;1.92;nan
59600;BME280;61855;55.030;73.326;2022-10-26T13:20:30;99752.16;;;1.91;nan
59600;BME280;61855;55.030;73.326;2022-10-26T13:23:15;99742.78;;;1.87;nan
59600;BME280;61855;55.030;73.326;2022-10-26T13:26:00;99768.03;;;1.92;nan
59600;BME280;61855;55.030;73.326;2022-10-26T13:28:43;99757.09;;;1.95;nan
59600;BME280;61855;55.030;73.326;2022-10-26T13:39:31;99753.41;;;1.87;nan
59600;BME280;61855;55.030;73.326;2022-10-26T13:42:00;99755.94;;;1.88;nan
59600;BME280;61855;55.030;73.326;2022-10-26T13:44:32;99758.19;;;1.93;nan
59600;BME280;61855;55.030;73.326;2022-10-26T13:47:15;99749.06;;;1.86;nan
59600;BME280;61855;55.030;73.326;2022-10-26T13:49:55;99753.41;;;1.87;nan
59600;BME280;61855;55.030;73.326;2022-10-26T13:52:42;99756.75;;;1.79;nan
59600;BME280;61855;55.030;73.326;2022-10-26T14:00:58;99756.94;;;1.87;nan
59600;BME280;61855;55.030;73.326;2022-10-26T14:03:30;99743.03;;;1.84;nan
59600;BME280;61855;55.030;73.326;2022-10-26T14:05:56;99745.28;;;1.88;nan
59600;BME280;61855;55.030;73.326;2022-10-26T14:08:33;99535.81;;;1.90;nan
59600;BME280;61855;55.030;73.326;2022-10-26T14:10:59;99744.06;;;1.92;nan
59600;BME280;61855;55.030;73.326;2022-10-26T14:13:35;99740.38;;;1.84;nan
59600;BME280;61855;55.030;73.326;2022-10-26T14:16:08;99731.94;;;1.79;nan
59600;BME280;61855;55.030;73.326;2022-10-26T14:18:36;99737.81;;;1.73;nan
59600;BME280;61855;55.030;73.326;2022-10-26T14:21:03;99755.63;;;1.82;nan
59600;BME280;61855;55.030;73.326;2022-10-26T14:23:56;99751.41;;;1.79;nan
59600;BME280;61855;55.030;73.326;2022-10-26T14:26:40;99746.09;;;1.79;nan
59600;BME280;61855;55.030;73.326;2022-10-26T14:29:18;99748.31;;;1.74;nan
59600;BME280;61855;55.030;73.326;2022-10-26T14:34:22;99736.72;;;1.75;nan
59600;BME280;61855;55.030;73.326;2022-10-26T14:39:36;99727.63;;;1.78;nan
59600;BME280;61855;55.030;73.326;2022-10-26T14:42:27;99736.56;;;1.77;nan
59600;BME280;61855;55.030;73.326;2022-10-26T14:44:55;99726.06;;;1.75;nan
59600;BME280;61855;55.030;73.326;2022-10-26T14:47:24;99726.19;;;1.74;nan
59600;BME280;61855;55.030;73.326;2022-10-26T14:49:52;99730.78;;;1.72;nan
59600;BME280;61855;55.030;73.326;2022-10-26T14:52:29;99725.63;;;1.70;nan
59600;BME280;61855;55.030;73.326;2022-10-26T14:55:04;99722.78;;;1.62;nan
59600;BME280;61855;55.030;73.326;2022-10-26T14:57:39;99724.22;;;1.66;nan
59600;BME280;61855;55.030;73.326;2022-10-26T15:02:55;99735.66;;;1.67;nan
59600;BME280;61855;55.030;73.326;2022-10-26T15:05:29;99716.34;;;1.65;nan
59600;BME280;61855;55.030;73.326;2022-10-26T15:07:56;99711.81;;;1.56;nan
59600;BME280;61855;55.030;73.326;2022-10-26T15:10:49;99716.03;;;1.58;nan
59600;BME280;61855;55.030;73.326;2022-10-26T15:13:20;99726.69;;;1.58;nan
59600;BME280;61855;55.030;73.326;2022-10-26T15:16:09;99714.34;;;1.57;nan
59600;BME280;61855;55.030;73.326;2022-10-26T15:18:40;99716.28;;;1.55;nan
59600;BME280;61855;55.030;73.326;2022-10-26T15:21:24;99691.09;;;1.50;nan
59600;BME280;61855;55.030;73.326;2022-10-26T15:23:51;99714.03;;;1.51;nan
59600;BME280;61855;55.030;73.326;2022-10-26T15:26:18;99710.41;;;1.52;nan
59600;BME280;61855;55.030;73.326;2022-10-26T15:28:55;99696.13;;;1.53;nan
59600;BME280;61855;55.030;73.326;2022-10-26T15:36:24;99684.97;;;1.59;nan
59600;BME280;61855;55.030;73.326;2022-10-26T15:38:51;99689.59;;;1.57;nan
59600;BME280;61855;55.030;73.326;2022-10-26T15:41:29;99674.16;;;1.51;nan
59600;BME280;61855;55.030;73.326;2022-10-26T15:44:02;99693.75;;;1.50;nan
59600;BME280;61855;55.030;73.326;2022-10-26T15:46:33;99694.28;;;1.44;nan
59600;BME280;61855;55.030;73.326;2022-10-26T15:49:14;99696.94;;;1.44;nan
59600;BME280;61855;55.030;73.326;2022-10-26T15:51:47;99694.53;;;1.41;nan
59600;BME280;61855;55.030;73.326;2022-10-26T15:54:14;99688.09;;;1.43;nan
59600;BME280;61855;55.030;73.326;2022-10-26T15:56:41;99697.47;;;1.38;nan
59600;BME280;61855;55.030;73.326;2022-10-26T15:59:16;99714.56;;;1.45;nan
59600;BME280;61855;55.030;73.326;2022-10-26T16:01:50;99702.25;;;1.44;nan
59600;BME280;61855;55.030;73.326;2022-10-26T16:04:17;99696.94;;;1.44;nan
59600;BME280;61855;55.030;73.326;2022-10-26T16:06:43;99692.47;;;1.44;nan
59600;BME280;61855;55.030;73.326;2022-10-26T16:09:15;99689.09;;;1.42;nan
59600;BME280;61855;55.030;73.326;2022-10-26T16:14:18;99711.06;;;1.44;nan
59600;BME280;61855;55.030;73.326;2022-10-26T16:16:54;99707.31;;;1.47;nan
59600;BME280;61855;55.030;73.326;2022-10-26T16:19:31;99711.63;;;1.48;nan
59600;BME280;61855;55.030;73.326;2022-10-26T16:21:58;99706.47;;;1.46;nan
59600;BME280;61855;55.030;73.326;2022-10-26T16:24:35;99712.63;;;1.47;nan
59600;BME280;61855;55.030;73.326;2022-10-26T16:27:01;99706.91;;;1.51;nan
59600;BME280;61855;55.030;73.326;2022-10-26T16:29:29;99711.53;;;1.49;nan
59600;BME280;61855;55.030;73.326;2022-10-26T16:32:00;99719.34;;;1.51;nan
59600;BME280;61855;55.030;73.326;2022-10-26T16:34:32;99722.16;;;1.49;nan
59600;BME280;61855;55.030;73.326;2022-10-26T16:37:02;99712.31;;;1.40;nan
59600;BME280;61855;55.030;73.326;2022-10-26T16:39:28;99694.06;;;1.35;nan